BKK weather

Suvarnabhumi Airport
Bangkok, Bangkok Province, Thailand

Public forecast

Using degrees Celsius for public forecast. Weather courtesy of forecast.io.

Current aviation weather report (METAR) for Suvarnabhumi Airport

Retrieved 2019/11/15 01:30 UTC (0 seconds ago):

VTBS 150130Z 07010KT 030V100 9999 FEW030 28/20 Q1013 NOSIG

Aviation forecast (TAF) for Suvarnabhumi Airport

Retrieved 2019-11-15 00:00 UTC (1 hour ago):

TAF VTBD 142300Z 1500/1606 06008KT 9000 FEW020 SCT100 TAF VTBS 142300Z 1500/1606 05008KT 9000 FEW020 SCT100